Time;durP1;ratioP1;P1;durP2;ratioP2;P2;SDS_P1;SDS_P2;PMS_P1;PMS_P2;Temp;Humidity;BMP_temperature;BMP_pressure;BME280_temperature;BME280_humidity;BME280_pressure;Samples;Min_cycle;Max_cycle;Signal;HPM_P1;HPM_P2
2023/10/04 00:02:12;;;;;;;4.50;1.15;;;17.60;77.90;;;;;;4898925;29;20460;-91
2023/10/04 00:04:43;;;;;;;6.03;1.40;;;17.60;77.80;;;;;;4883421;29;20061;-92
2023/10/04 00:07:11;;;;;;;5.55;1.35;;;17.60;78.00;;;;;;4898649;29;20053;-92
2023/10/04 00:09:38;;;;;;;5.32;1.15;;;17.60;77.70;;;;;;4867643;29;20059;-92
2023/10/04 00:12:08;;;;;;;4.97;1.13;;;17.60;77.30;;;;;;4883546;29;20049;-92
2023/10/04 00:14:35;;;;;;;8.25;1.30;;;17.60;77.30;;;;;;4892820;29;20064;-92
2023/10/04 00:17:05;;;;;;;7.20;1.58;;;17.30;78.40;;;;;;4865315;29;20059;-92
2023/10/04 00:19:32;;;;;;;5.53;1.05;;;17.30;78.60;;;;;;4865212;29;20054;-92
2023/10/04 00:21:59;;;;;;;5.35;1.23;;;17.30;78.30;;;;;;4864664;29;20149;-91
2023/10/04 00:24:26;;;;;;;5.40;1.23;;;17.30;78.40;;;;;;4864894;29;20061;-91
2023/10/04 00:26:54;;;;;;;7.43;1.20;;;17.40;78.30;;;;;;4876272;29;20091;-91
2023/10/04 00:29:21;;;;;;;6.55;1.45;;;17.50;78.30;;;;;;4864842;29;20061;-92
2023/10/04 00:31:48;;;;;;;4.85;1.20;;;17.40;78.50;;;;;;4868043;29;20108;-92
2023/10/04 00:34:16;;;;;;;7.03;1.77;;;17.50;78.40;;;;;;4898858;29;20515;-91
2023/10/04 00:36:44;;;;;;;7.47;1.30;;;17.50;78.30;;;;;;4895796;29;20056;-92
2023/10/04 00:39:13;;;;;;;5.78;1.48;;;17.50;78.30;;;;;;4864464;29;20140;-92
2023/10/04 00:41:42;;;;;;;5.82;1.40;;;17.50;78.80;;;;;;4865159;29;20124;-93
2023/10/04 00:44:10;;;;;;;6.22;1.45;;;17.50;78.40;;;;;;4864630;29;20235;-92
2023/10/04 00:46:41;;;;;;;7.65;1.60;;;17.50;78.70;;;;;;4873155;29;20064;-91
2023/10/04 00:49:09;;;;;;;5.60;1.30;;;17.50;78.80;;;;;;4901903;29;20067;-91
2023/10/04 00:51:36;;;;;;;7.15;1.45;;;17.50;78.70;;;;;;4894698;29;20061;-93
2023/10/04 00:54:12;;;;;;;6.30;1.50;;;17.50;79.30;;;;;;4885479;29;20104;-91
2023/10/04 00:56:41;;;;;;;6.40;1.55;;;17.40;79.60;;;;;;4902231;29;20045;-91
2023/10/04 00:59:09;;;;;;;8.02;1.80;;;17.30;79.70;;;;;;4902259;29;20147;-92
2023/10/04 01:01:40;;;;;;;5.27;1.17;;;17.40;79.70;;;;;;4895944;29;20140;-92
2023/10/04 01:04:08;;;;;;;6.72;1.73;;;17.40;79.80;;;;;;4867519;29;20109;-91
2023/10/04 01:06:37;;;;;;;6.18;1.50;;;17.30;79.80;;;;;;4867427;29;20076;-92
2023/10/04 01:09:06;;;;;;;7.32;1.60;;;17.40;79.50;;;;;;4867300;29;20049;-91
2023/10/04 01:11:35;;;;;;;7.78;1.88;;;17.40;79.50;;;;;;4877897;29;20064;-92
2023/10/04 01:14:15;;;;;;;5.93;1.60;;;17.40;79.70;;;;;;4875503;29;20045;-91
2023/10/04 01:16:42;;;;;;;6.32;1.60;;;17.30;79.70;;;;;;4899595;29;20044;-92
2023/10/04 01:19:14;;;;;;;7.03;1.90;;;17.10;80.30;;;;;;4881781;29;20073;-91
2023/10/04 01:21:41;;;;;;;6.57;1.23;;;17.10;80.70;;;;;;4876673;29;20056;-90
2023/10/04 01:24:09;;;;;;;4.35;0.80;;;16.80;79.10;;;;;;4894629;29;20060;-90
2023/10/04 01:26:37;;;;;;;2.67;0.50;;;16.20;79.40;;;;;;4892023;29;20048;-89
2023/10/04 01:29:08;;;;;;;4.88;0.50;;;15.70;79.30;;;;;;4878774;29;20380;-90
2023/10/04 01:31:35;;;;;;;3.42;0.85;;;15.30;79.30;;;;;;4874472;29;20056;-89
2023/10/04 01:34:03;;;;;;;2.70;0.50;;;15.00;79.00;;;;;;4894883;29;20121;-90
2023/10/04 01:36:32;;;;;;;4.15;0.73;;;14.90;77.30;;;;;;4873778;29;20575;-89
2023/10/04 01:38:59;;;;;;;3.77;0.70;;;14.90;78.40;;;;;;4877047;29;20044;-90
2023/10/04 01:41:27;;;;;;;5.22;0.65;;;14.90;78.00;;;;;;4877745;29;20456;-89
2023/10/04 01:44:00;;;;;;;3.58;0.65;;;14.90;77.50;;;;;;4886969;29;20051;-89
2023/10/04 01:46:27;;;;;;;3.97;0.60;;;14.80;77.60;;;;;;4874640;29;20587;-90
2023/10/04 01:48:56;;;;;;;4.05;0.68;;;14.70;77.70;;;;;;4892367;29;20488;-89
2023/10/04 01:51:27;;;;;;;4.50;0.70;;;14.70;77.80;;;;;;4874690;29;20081;-90
2023/10/04 01:53:58;;;;;;;3.97;0.70;;;14.70;77.80;;;;;;4893705;29;20077;-91
2023/10/04 01:56:25;;;;;;;5.18;0.70;;;14.80;78.10;;;;;;4888184;29;20049;-90
2023/10/04 01:58:54;;;;;;;5.10;0.60;;;14.80;77.70;;;;;;4872843;29;20060;-90
2023/10/04 02:01:21;;;;;;;3.88;0.65;;;14.80;78.40;;;;;;4893984;29;20528;-90
2023/10/04 02:03:48;;;;;;;6.63;0.70;;;14.90;78.90;;;;;;4890197;29;20055;-89
2023/10/04 02:06:15;;;;;;;3.20;0.60;;;15.00;78.30;;;;;;4889788;29;20049;-89
2023/10/04 02:08:45;;;;;;;6.30;0.70;;;15.10;78.30;;;;;;4892211;29;20105;-90
2023/10/04 02:11:13;;;;;;;4.15;0.90;;;15.10;78.10;;;;;;4870245;29;20407;-90
2023/10/04 02:13:40;;;;;;;4.55;0.70;;;15.20;78.00;;;;;;4871356;29;20057;-90
2023/10/04 02:16:15;;;;;;;3.60;0.60;;;15.30;77.50;;;;;;4871782;29;20065;-90
2023/10/04 02:18:43;;;;;;;5.60;0.88;;;15.40;77.50;;;;;;4889180;29;20049;-90
2023/10/04 02:21:10;;;;;;;4.95;0.88;;;15.40;78.40;;;;;;4876225;29;20488;-89
2023/10/04 02:23:38;;;;;;;3.85;0.70;;;15.40;78.60;;;;;;4874907;29;20072;-90
2023/10/04 02:26:09;;;;;;;4.97;0.88;;;15.40;78.50;;;;;;4890169;29;20072;-89
2023/10/04 02:28:37;;;;;;;3.43;0.50;;;15.30;79.00;;;;;;4889042;29;20084;-90
2023/10/04 02:31:04;;;;;;;4.85;0.70;;;15.30;78.90;;;;;;4892991;29;20053;-91
2023/10/04 02:33:34;;;;;;;3.65;0.70;;;15.30;79.20;;;;;;4887933;29;20073;-90
2023/10/04 02:36:04;;;;;;;5.00;0.80;;;15.30;79.10;;;;;;4875471;29;20124;-90
2023/10/04 02:38:35;;;;;;;4.35;0.90;;;15.30;79.10;;;;;;4886662;29;20053;-91
2023/10/04 02:41:06;;;;;;;4.23;0.60;;;15.30;79.50;;;;;;4892821;29;20100;-91
2023/10/04 02:43:35;;;;;;;3.92;0.77;;;15.20;79.90;;;;;;4881548;29;20503;-91
2023/10/04 02:46:03;;;;;;;4.93;0.90;;;15.20;80.00;;;;;;4899271;29;20143;-91
2023/10/04 02:48:32;;;;;;;3.20;0.70;;;15.10;79.90;;;;;;4877457;29;20049;-91
2023/10/04 02:51:00;;;;;;;4.05;0.52;;;15.10;79.60;;;;;;4868336;29;20052;-91
2023/10/04 02:53:28;;;;;;;5.87;1.00;;;15.20;79.50;;;;;;4877245;29;20071;-90
2023/10/04 02:55:57;;;;;;;5.60;0.63;;;15.20;79.20;;;;;;4888439;29;20067;-91
2023/10/04 02:58:31;;;;;;;3.92;0.63;;;15.10;77.20;;;;;;4867441;29;20215;-90
2023/10/04 03:01:00;;;;;;;4.75;0.82;;;15.10;78.40;;;;;;4873716;29;20511;-91
2023/10/04 03:03:27;;;;;;;3.35;0.68;;;15.20;78.70;;;;;;4884421;29;20076;-92
2023/10/04 03:05:59;;;;;;;5.40;0.90;;;15.20;78.80;;;;;;4874192;29;20055;-91
2023/10/04 03:08:28;;;;;;;4.88;0.82;;;15.20;78.70;;;;;;4891448;29;20538;-91
2023/10/04 03:10:55;;;;;;;4.28;0.88;;;15.10;78.80;;;;;;4882735;29;20060;-90
2023/10/04 03:13:27;;;;;;;4.30;0.80;;;15.10;78.50;;;;;;4881677;29;20116;-91
2023/10/04 03:16:00;;;;;;;4.20;0.63;;;15.00;79.00;;;;;;4880209;29;20045;-91
2023/10/04 03:18:28;;;;;;;2.67;0.60;;;15.00;79.00;;;;;;4899556;29;20087;-90
2023/10/04 03:23:40;;;;;;;6.13;1.10;;;15.10;78.90;;;;;;4895677;29;20159;-91
2023/10/04 03:26:18;;;;;;;4.18;0.90;;;15.10;78.80;;;;;;4884754;29;20048;-91
2023/10/04 03:28:50;;;;;;;3.60;0.80;;;15.10;78.60;;;;;;4890942;29;20056;-90
2023/10/04 03:31:20;;;;;;;6.13;1.37;;;15.10;78.80;;;;;;4879044;29;20052;-90
2023/10/04 03:33:53;;;;;;;4.38;1.00;;;15.00;78.00;;;;;;4886303;29;20468;-90
2023/10/04 03:36:25;;;;;;;6.10;0.95;;;15.10;78.20;;;;;;4865530;29;20056;-93
2023/10/04 03:38:57;;;;;;;2.50;0.60;;;15.20;77.90;;;;;;4865229;29;20508;-93
2023/10/04 03:41:24;;;;;;;4.28;0.85;;;15.20;78.00;;;;;;4865174;29;20496;-93
2023/10/04 03:43:57;;;;;;;6.27;0.90;;;15.20;78.40;;;;;;4880340;29;20105;-93
2023/10/04 03:46:25;;;;;;;5.65;0.82;;;15.20;78.10;;;;;;4870629;29;20048;-94
2023/10/04 03:48:59;;;;;;;5.03;1.30;;;15.10;75.60;;;;;;4868754;29;20113;-94
2023/10/04 03:51:29;;;;;;;6.57;1.00;;;15.20;76.60;;;;;;4880600;29;21347;-93
2023/10/04 03:54:05;;;;;;;5.53;1.00;;;15.10;77.40;;;;;;4879860;29;20139;-93
2023/10/04 03:56:34;;;;;;;5.03;1.00;;;15.10;76.80;;;;;;4865095;29;20083;-93
2023/10/04 03:59:03;;;;;;;4.68;0.95;;;15.00;75.70;;;;;;4865074;29;20408;-92
2023/10/04 04:01:32;;;;;;;3.45;0.98;;;15.00;75.20;;;;;;4880588;29;20526;-93
2023/10/04 04:04:03;;;;;;;8.57;1.13;;;15.10;76.60;;;;;;4864547;29;20109;-92
2023/10/04 04:06:31;;;;;;;4.95;0.88;;;15.00;77.00;;;;;;4880051;29;20105;-93
2023/10/04 04:09:03;;;;;;;6.30;1.00;;;15.10;77.20;;;;;;4864660;29;20067;-93
2023/10/04 04:11:31;;;;;;;5.43;0.80;;;15.10;77.10;;;;;;4879673;29;20049;-94
2023/10/04 04:13:59;;;;;;;7.10;1.40;;;15.10;77.30;;;;;;4868255;29;20100;-93
2023/10/04 04:16:27;;;;;;;4.65;0.85;;;15.10;77.00;;;;;;4859821;29;20057;-93
2023/10/04 04:18:55;;;;;;;3.20;0.88;;;15.10;77.40;;;;;;4874821;29;20048;-93
2023/10/04 04:21:28;;;;;;;4.93;1.00;;;15.10;77.50;;;;;;4883108;29;20140;-93
2023/10/04 04:23:56;;;;;;;5.30;0.90;;;15.00;77.60;;;;;;4898647;29;20100;-93
2023/10/04 04:26:27;;;;;;;4.97;0.88;;;15.00;78.10;;;;;;4882851;29;20149;-92
2023/10/04 04:28:55;;;;;;;5.10;0.85;;;15.00;77.60;;;;;;4898742;29;20049;-93
2023/10/04 04:31:23;;;;;;;5.70;0.85;;;15.00;76.60;;;;;;4898338;29;20075;-93
2023/10/04 04:33:50;;;;;;;5.57;1.07;;;15.10;76.70;;;;;;4883242;29;20519;-92
2023/10/04 04:36:27;;;;;;;6.25;0.93;;;15.10;77.40;;;;;;4898351;29;20104;-93
2023/10/04 04:39:05;;;;;;;7.13;1.60;;;15.10;77.80;;;;;;4898698;29;20148;-93
2023/10/04 04:41:35;;;;;;;5.07;0.90;;;15.00;77.80;;;;;;4898055;29;20139;-93
2023/10/04 04:44:19;;;;;;;4.82;0.93;;;15.00;78.00;;;;;;4882734;29;20059;-94
2023/10/04 04:46:47;;;;;;;5.43;0.70;;;15.00;78.30;;;;;;4898088;29;20108;-93
2023/10/04 04:49:16;;;;;;;4.63;1.00;;;14.90;78.40;;;;;;4898748;29;20147;-93
2023/10/04 04:51:45;;;;;;;6.60;1.17;;;15.00;78.40;;;;;;4882687;29;20582;-93
2023/10/04 04:54:12;;;;;;;6.65;0.90;;;15.00;78.20;;;;;;4898145;29;20052;-93
2023/10/04 04:56:39;;;;;;;4.10;0.80;;;15.00;78.10;;;;;;4898176;29;20060;-93
2023/10/04 04:59:10;;;;;;;6.37;1.13;;;14.90;77.60;;;;;;4884048;29;20411;-93
2023/10/04 05:01:40;;;;;;;5.35;1.00;;;14.80;78.20;;;;;;4898155;29;20051;-92
2023/10/04 05:04:08;;;;;;;4.90;1.05;;;14.80;78.40;;;;;;4882762;29;20052;-93
2023/10/04 05:06:38;;;;;;;7.07;1.15;;;14.80;78.20;;;;;;4882778;29;20120;-93
2023/10/04 05:09:05;;;;;;;3.47;0.90;;;14.80;78.20;;;;;;4898032;29;20053;-94
2023/10/04 05:11:36;;;;;;;5.00;0.90;;;14.80;78.00;;;;;;4882607;29;20422;-93
2023/10/04 05:14:05;;;;;;;5.95;0.90;;;14.80;77.80;;;;;;4898239;29;20060;-94
2023/10/04 05:16:34;;;;;;;6.03;0.90;;;14.80;77.80;;;;;;4897538;29;20392;-93
2023/10/04 05:19:04;;;;;;;5.72;0.93;;;14.80;77.90;;;;;;4882166;29;20069;-93
2023/10/04 05:21:32;;;;;;;3.53;0.90;;;14.70;78.10;;;;;;4897855;29;20053;-93
2023/10/04 05:23:59;;;;;;;7.63;1.10;;;14.60;78.40;;;;;;4897690;29;20083;-93
2023/10/04 05:26:27;;;;;;;5.45;1.10;;;14.60;78.30;;;;;;4898004;29;20103;-93
2023/10/04 05:28:55;;;;;;;6.07;0.95;;;14.60;78.50;;;;;;4898023;29;20499;-93
2023/10/04 05:31:22;;;;;;;5.20;1.40;;;14.60;78.50;;;;;;4898061;29;20060;-92
2023/10/04 05:33:50;;;;;;;5.85;1.10;;;14.70;78.40;;;;;;4899205;29;20060;-93
2023/10/04 05:36:17;;;;;;;5.17;1.10;;;14.60;78.30;;;;;;4885600;29;20056;-93
2023/10/04 05:38:45;;;;;;;10.52;1.35;;;14.50;78.30;;;;;;4885276;29;20048;-92
2023/10/04 05:41:12;;;;;;;4.35;1.00;;;14.50;78.20;;;;;;4885674;29;20049;-93
2023/10/04 05:43:39;;;;;;;4.50;1.10;;;14.40;78.40;;;;;;4885518;29;20077;-93
2023/10/04 05:46:07;;;;;;;7.20;1.20;;;14.40;78.50;;;;;;4885749;29;20057;-93
2023/10/04 05:48:35;;;;;;;9.23;1.50;;;14.40;78.60;;;;;;4885670;29;20070;-94
2023/10/04 05:51:07;;;;;;;8.35;1.33;;;14.40;78.30;;;;;;4900941;29;20554;-93
2023/10/04 05:53:35;;;;;;;6.15;1.50;;;14.40;78.40;;;;;;4901004;29;20060;-93
2023/10/04 05:56:04;;;;;;;6.18;1.50;;;14.50;78.40;;;;;;4885100;29;20088;-93
2023/10/04 05:58:34;;;;;;;7.18;1.60;;;14.50;78.30;;;;;;4885929;29;20177;-93
2023/10/04 06:01:06;;;;;;;7.10;1.43;;;14.50;78.20;;;;;;4900717;29;20147;-93
2023/10/04 06:03:35;;;;;;;5.55;1.33;;;14.50;78.20;;;;;;4900907;29;20104;-93
2023/10/04 06:06:03;;;;;;;6.18;1.70;;;14.50;78.30;;;;;;4900652;29;20060;-93
2023/10/04 06:08:31;;;;;;;10.50;2.25;;;14.50;78.20;;;;;;4885164;29;20506;-93
2023/10/04 06:11:01;;;;;;;11.02;2.15;;;14.50;78.30;;;;;;4900710;29;20419;-93
2023/10/04 06:13:29;;;;;;;9.77;2.20;;;14.60;78.10;;;;;;4900471;29;20056;-91
2023/10/04 06:16:18;;;;;;;18.33;3.25;;;14.60;78.20;;;;;;4900821;29;20059;-92
2023/10/04 06:18:49;;;;;;;8.38;2.20;;;14.70;78.20;;;;;;4885318;29;20053;-91
2023/10/04 06:21:17;;;;;;;9.05;3.00;;;14.70;78.00;;;;;;4900608;29;20486;-90
2023/10/04 06:23:44;;;;;;;5.38;1.60;;;14.80;78.00;;;;;;4884955;29;20045;-91
2023/10/04 06:26:16;;;;;;;6.67;1.70;;;14.80;77.10;;;;;;4900867;29;20143;-92
2023/10/04 06:28:44;;;;;;;8.43;1.00;;;14.80;76.20;;;;;;4885162;29;20063;-90
2023/10/04 06:31:11;;;;;;;8.32;1.20;;;14.80;75.40;;;;;;4884721;29;20095;-92
2023/10/04 06:33:40;;;;;;;5.78;1.00;;;14.80;74.30;;;;;;4884728;29;20511;-92
2023/10/04 06:36:09;;;;;;;7.07;1.15;;;14.90;74.30;;;;;;4900253;29;20089;-91
2023/10/04 06:38:36;;;;;;;5.57;1.10;;;15.00;75.10;;;;;;4899762;29;20141;-90
2023/10/04 06:41:03;;;;;;;5.47;1.00;;;15.00;75.40;;;;;;4884570;29;20063;-91
2023/10/04 06:43:30;;;;;;;6.70;1.23;;;15.00;73.90;;;;;;4899910;29;20100;-91
2023/10/04 06:45:57;;;;;;;5.72;1.10;;;15.00;72.90;;;;;;4883581;29;20152;-91
2023/10/04 06:48:25;;;;;;;5.00;1.00;;;15.00;72.70;;;;;;4884434;29;20064;-91
2023/10/04 06:50:52;;;;;;;3.37;0.73;;;15.00;72.70;;;;;;4884450;29;20105;-92
2023/10/04 06:53:22;;;;;;;5.00;0.70;;;15.00;72.20;;;;;;4884514;29;20151;-92
2023/10/04 06:55:49;;;;;;;5.38;0.70;;;14.90;72.10;;;;;;4884356;29;20052;-92
2023/10/04 06:58:16;;;;;;;7.43;0.90;;;14.90;73.00;;;;;;4899856;29;20048;-92
2023/10/04 07:00:44;;;;;;;4.28;0.82;;;15.00;74.00;;;;;;4900035;29;20052;-92
2023/10/04 07:03:11;;;;;;;5.23;1.13;;;15.00;73.30;;;;;;4884263;29;20052;-91
2023/10/04 07:05:40;;;;;;;6.60;1.00;;;15.00;73.60;;;;;;4899886;29;20403;-92
2023/10/04 07:08:12;;;;;;;4.90;1.00;;;15.00;74.20;;;;;;4899836;29;20518;-92
2023/10/04 07:10:41;;;;;;;6.78;1.50;;;14.90;73.80;;;;;;4899637;29;20077;-92
2023/10/04 07:13:09;;;;;;;4.13;0.80;;;14.90;73.40;;;;;;4883975;29;20060;-91
2023/10/04 07:15:39;;;;;;;6.77;1.00;;;14.80;74.10;;;;;;4899513;29;20079;-92
2023/10/04 07:18:10;;;;;;;5.68;1.00;;;14.90;74.10;;;;;;4899524;29;20074;-92
2023/10/04 07:20:38;;;;;;;5.05;0.80;;;14.80;72.30;;;;;;4884583;29;20060;-93
2023/10/04 07:23:08;;;;;;;4.30;0.90;;;14.90;73.20;;;;;;4883905;29;20057;-92
2023/10/04 07:25:49;;;;;;;5.32;0.95;;;14.80;72.50;;;;;;4899331;29;20068;-93
2023/10/04 07:28:16;;;;;;;3.50;0.80;;;14.90;72.50;;;;;;4899442;29;20095;-92
2023/10/04 07:30:44;;;;;;;4.38;0.80;;;14.90;71.40;;;;;;4883909;29;20052;-91
2023/10/04 07:33:11;;;;;;;6.65;1.20;;;15.00;72.00;;;;;;4899334;29;20151;-94
2023/10/04 07:35:39;;;;;;;4.50;1.02;;;15.00;72.00;;;;;;4884045;29;20057;-93
2023/10/04 07:38:07;;;;;;;7.22;1.02;;;15.00;72.40;;;;;;4883813;29;20116;-93
2023/10/04 07:40:35;;;;;;;4.60;0.83;;;15.10;72.50;;;;;;4898975;29;20088;-92
2023/10/04 07:43:02;;;;;;;14.40;3.40;;;15.30;72.60;;;;;;4883667;29;20057;-92
2023/10/04 07:45:31;;;;;;;13.52;4.47;;;15.30;71.20;;;;;;4883696;29;20151;-91
2023/10/04 07:48:01;;;;;;;7.85;2.08;;;15.30;71.00;;;;;;4899193;29;20052;-93
2023/10/04 07:50:31;;;;;;;7.07;2.63;;;15.20;71.70;;;;;;4899190;29;20104;-92
2023/10/04 07:53:03;;;;;;;7.07;1.40;;;15.30;71.60;;;;;;4883513;29;20052;-92
2023/10/04 07:55:30;;;;;;;10.05;1.70;;;15.40;71.70;;;;;;4899081;29;20440;-92
2023/10/04 07:58:02;;;;;;;9.35;3.78;;;15.50;71.30;;;;;;4883547;29;20144;-91
2023/10/04 08:00:37;;;;;;;8.20;1.20;;;15.60;70.90;;;;;;4899143;29;20503;-92
2023/10/04 08:03:06;;;;;;;7.50;2.08;;;15.60;69.50;;;;;;4898972;29;20574;-91
2023/10/04 08:05:35;;;;;;;6.80;1.27;;;15.60;69.70;;;;;;4884309;29;20048;-92
2023/10/04 08:08:05;;;;;;;4.95;1.23;;;15.60;69.30;;;;;;4883569;29;20044;-92
2023/10/04 08:10:35;;;;;;;6.10;0.98;;;15.60;69.20;;;;;;4883975;29;20151;-91
2023/10/04 08:13:04;;;;;;;5.18;1.00;;;15.60;68.00;;;;;;4883370;29;20503;-92
2023/10/04 08:15:36;;;;;;;7.30;1.40;;;15.60;68.90;;;;;;4884212;29;20076;-91
2023/10/04 08:18:04;;;;;;;6.27;0.93;;;15.60;69.20;;;;;;4898654;29;20053;-92
2023/10/04 08:20:36;;;;;;;5.53;1.23;;;15.70;69.60;;;;;;4883714;29;20076;-92
2023/10/04 08:23:04;;;;;;;7.55;1.40;;;15.80;68.70;;;;;;4899137;29;20143;-92
2023/10/04 08:25:32;;;;;;;7.22;1.27;;;15.70;68.00;;;;;;4883332;29;20075;-91
2023/10/04 08:28:01;;;;;;;5.78;1.10;;;15.80;68.80;;;;;;4899372;29;20060;-91
2023/10/04 08:30:31;;;;;;;6.20;1.20;;;15.80;68.50;;;;;;4899157;29;20049;-92
2023/10/04 08:32:59;;;;;;;5.90;1.38;;;15.80;68.20;;;;;;4883628;29;20044;-92
2023/10/04 08:35:28;;;;;;;5.45;1.27;;;16.00;68.00;;;;;;4898623;29;20488;-92
2023/10/04 08:37:58;;;;;;;6.68;1.33;;;16.00;67.70;;;;;;4898975;29;20513;-92
2023/10/04 08:40:27;;;;;;;6.20;1.10;;;16.00;67.50;;;;;;4883018;29;20049;-93
2023/10/04 08:42:57;;;;;;;7.63;1.00;;;16.10;68.30;;;;;;4899217;29;20096;-93
2023/10/04 08:45:29;;;;;;;5.60;1.20;;;16.20;66.30;;;;;;4883725;29;20052;-92
2023/10/04 08:47:57;;;;;;;8.23;1.27;;;16.10;66.70;;;;;;4898700;29;20143;-93
2023/10/04 08:50:54;;;;;;;3.95;0.90;;;16.20;66.00;;;;;;4883375;29;20057;-92
2023/10/04 08:53:25;;;;;;;5.60;1.13;;;16.40;66.70;;;;;;4898662;29;20048;-92
2023/10/04 08:55:59;;;;;;;4.57;1.07;;;16.50;65.60;;;;;;4882887;29;20194;-92
2023/10/04 08:58:27;;;;;;;6.45;1.02;;;16.50;64.50;;;;;;4883206;29;20049;-91
2023/10/04 09:00:54;;;;;;;5.22;1.00;;;16.50;65.00;;;;;;4882545;29;20140;-93
2023/10/04 09:03:22;;;;;;;5.75;1.10;;;16.60;63.10;;;;;;4898556;29;20048;-91
2023/10/04 09:05:53;;;;;;;7.47;1.77;;;16.60;63.20;;;;;;4897773;29;20049;-92
2023/10/04 09:08:24;;;;;;;3.23;0.67;;;16.60;64.50;;;;;;4883199;29;20061;-93
2023/10/04 09:10:55;;;;;;;5.13;1.00;;;16.60;62.50;;;;;;4902285;29;20472;-93
2023/10/04 09:13:23;;;;;;;6.07;0.63;;;16.60;62.80;;;;;;4902112;29;20059;-91
2023/10/04 09:15:51;;;;;;;4.45;0.70;;;16.80;63.20;;;;;;4901255;29;20048;-92
2023/10/04 09:18:26;;;;;;;7.60;1.80;;;16.90;62.60;;;;;;4901304;29;20055;-93
2023/10/04 09:20:54;;;;;;;5.17;0.97;;;17.00;59.30;;;;;;4901294;29;20152;-91
2023/10/04 09:23:24;;;;;;;4.03;0.65;;;17.00;56.70;;;;;;4885712;29;20056;-93
2023/10/04 09:25:55;;;;;;;3.72;0.50;;;16.90;57.80;;;;;;4885652;29;20052;-92
2023/10/04 09:28:40;;;;;;;6.50;0.80;;;17.00;57.60;;;;;;4901198;29;20515;-92
2023/10/04 09:31:12;;;;;;;4.13;0.65;;;16.80;57.30;;;;;;4901487;29;20147;-92
2023/10/04 09:33:41;;;;;;;3.17;0.50;;;16.90;59.70;;;;;;4901041;29;20053;-92
2023/10/04 09:36:10;;;;;;;4.70;0.75;;;16.90;57.60;;;;;;4901063;29;20056;-92
2023/10/04 09:38:39;;;;;;;5.25;0.80;;;17.00;58.00;;;;;;4900752;29;20071;-92
2023/10/04 09:41:09;;;;;;;6.72;0.80;;;17.10;59.30;;;;;;4901048;29;20049;-92
2023/10/04 09:43:39;;;;;;;6.13;0.80;;;17.00;58.00;;;;;;4901036;29;20501;-92
2023/10/04 09:46:12;;;;;;;3.23;0.50;;;17.10;58.40;;;;;;4885927;29;20151;-92
2023/10/04 09:48:44;;;;;;;5.68;0.90;;;17.10;61.00;;;;;;4885330;29;20060;-93
2023/10/04 09:51:13;;;;;;;4.10;0.80;;;17.10;58.20;;;;;;4900999;29;20052;-92
2023/10/04 09:53:42;;;;;;;4.53;0.80;;;17.00;58.00;;;;;;4900636;29;20088;-92
2023/10/04 09:56:13;;;;;;;6.50;0.80;;;17.00;58.30;;;;;;4885596;29;20059;-92
2023/10/04 09:58:49;;;;;;;4.53;0.50;;;17.00;58.00;;;;;;4901207;29;20059;-93
2023/10/04 10:01:19;;;;;;;4.55;1.10;;;16.90;59.10;;;;;;4901125;29;20053;-93
2023/10/04 10:04:02;;;;;;;5.45;1.13;;;16.90;59.90;;;;;;4901051;29;20048;-92
2023/10/04 10:06:41;;;;;;;3.60;0.60;;;17.00;59.20;;;;;;4901416;29;20064;-92
2023/10/04 10:09:11;;;;;;;6.57;0.88;;;17.10;59.30;;;;;;4901145;29;20052;-93
2023/10/04 10:11:39;;;;;;;2.77;0.60;;;17.10;58.90;;;;;;4900895;29;20136;-92
2023/10/04 10:14:10;;;;;;;4.50;0.63;;;17.20;58.20;;;;;;4885458;29;20426;-92
2023/10/04 10:16:38;;;;;;;6.28;1.08;;;17.20;58.50;;;;;;4900983;29;20130;-92
2023/10/04 10:19:06;;;;;;;4.55;0.85;;;17.30;58.50;;;;;;4885449;29;20529;-93
2023/10/04 10:22:18;;;;;;;4.82;0.65;;;17.30;58.80;;;;;;4900943;29;20463;-93
2023/10/04 10:25:10;;;;;;;4.70;0.60;;;17.30;57.90;;;;;;4900934;29;20056;-93
2023/10/04 10:27:37;;;;;;;6.78;1.02;;;17.40;57.30;;;;;;4886111;29;20130;-92
2023/10/04 10:30:08;;;;;;;4.30;0.70;;;17.40;55.50;;;;;;4884975;29;20056;-93
2023/10/04 10:32:35;;;;;;;3.70;0.73;;;17.40;56.60;;;;;;4884926;29;20155;-94
2023/10/04 10:35:04;;;;;;;5.63;0.75;;;17.50;57.10;;;;;;4884546;29;20068;-94
2023/10/04 10:37:35;;;;;;;3.70;0.67;;;17.50;58.40;;;;;;4884471;29;20057;-92
2023/10/04 10:40:09;;;;;;;4.07;0.85;;;17.70;57.80;;;;;;4900012;29;20056;-93
2023/10/04 10:43:08;;;;;;;4.57;0.68;;;17.80;55.80;;;;;;4899906;29;20410;-93
2023/10/04 10:45:38;;;;;;;5.15;0.60;;;17.90;55.60;;;;;;4885096;29;20045;-92
2023/10/04 10:48:11;;;;;;;3.67;0.80;;;18.00;55.60;;;;;;4884540;29;20055;-94
2023/10/04 10:50:41;;;;;;;4.07;0.60;;;18.00;54.90;;;;;;4900822;29;20064;-93
2023/10/04 10:53:13;;;;;;;3.63;0.60;;;18.10;56.00;;;;;;4884456;29;20053;-92
2023/10/04 10:55:41;;;;;;;3.13;0.68;;;18.10;55.50;;;;;;4899808;29;20053;-94
2023/10/04 10:58:09;;;;;;;5.45;0.93;;;18.20;56.30;;;;;;4884222;29;20467;-94
2023/10/04 11:00:36;;;;;;;3.38;0.70;;;18.30;54.10;;;;;;4884085;29;20053;-93
2023/10/04 11:03:11;;;;;;;3.70;0.50;;;18.40;53.80;;;;;;4884441;29;20044;-93
2023/10/04 11:05:40;;;;;;;7.25;0.73;;;18.40;55.40;;;;;;4884326;29;20575;-93
2023/10/04 11:08:12;;;;;;;3.63;0.85;;;18.50;54.50;;;;;;4884085;29;20063;-93
2023/10/04 11:10:41;;;;;;;7.40;0.70;;;18.50;56.20;;;;;;4899469;29;20057;-93
2023/10/04 11:13:14;;;;;;;2.97;0.60;;;18.60;54.90;;;;;;4899286;29;20511;-93
2023/10/04 11:15:46;;;;;;;4.27;0.80;;;18.60;55.70;;;;;;4899108;29;20060;-93
2023/10/04 11:18:14;;;;;;;5.72;0.90;;;18.70;55.40;;;;;;4883867;29;20061;-94
2023/10/04 11:20:42;;;;;;;4.38;0.70;;;18.70;53.60;;;;;;4899396;29;20104;-93
2023/10/04 11:23:10;;;;;;;2.67;0.70;;;18.60;54.30;;;;;;4884278;29;20048;-93
2023/10/04 11:25:38;;;;;;;4.57;0.63;;;18.60;53.90;;;;;;4899560;29;20059;-93
2023/10/04 11:28:07;;;;;;;5.30;0.60;;;18.60;53.70;;;;;;4900229;29;20067;-94
2023/10/04 11:30:35;;;;;;;4.63;0.82;;;18.50;54.30;;;;;;4883920;29;20143;-93
2023/10/04 11:33:05;;;;;;;3.80;0.60;;;18.50;55.60;;;;;;4884050;29;20048;-94
2023/10/04 11:35:34;;;;;;;3.75;1.00;;;18.60;53.60;;;;;;4899434;29;20511;-94
2023/10/04 11:38:05;;;;;;;3.70;0.60;;;18.80;54.30;;;;;;4899002;29;20053;-93
2023/10/04 11:40:34;;;;;;;3.83;0.50;;;18.90;54.30;;;;;;4899132;29;20061;-93
2023/10/04 11:43:03;;;;;;;2.83;0.50;;;19.10;52.00;;;;;;4899869;29;20080;-93
2023/10/04 11:45:31;;;;;;;3.80;0.52;;;19.20;51.90;;;;;;4899103;29;20083;-93
2023/10/04 11:48:05;;;;;;;3.15;0.50;;;19.40;52.20;;;;;;4884685;29;20060;-93
2023/10/04 11:50:53;;;;;;;5.32;0.65;;;19.60;51.60;;;;;;4883832;29;20060;-93
2023/10/04 11:53:43;;;;;;;4.20;0.70;;;19.60;51.40;;;;;;4899121;29;20063;-93
2023/10/04 11:56:10;;;;;;;5.30;0.68;;;19.40;51.50;;;;;;4899340;29;20060;-94
2023/10/04 11:58:51;;;;;;;4.78;0.68;;;19.10;51.60;;;;;;4871462;29;20064;-93
2023/10/04 12:01:24;;;;;;;4.18;0.82;;;19.00;53.50;;;;;;4865554;29;20448;-93
2023/10/04 12:04:02;;;;;;;5.32;0.80;;;18.90;53.80;;;;;;4865417;29;20053;-93
2023/10/04 12:06:33;;;;;;;4.53;0.50;;;18.80;53.20;;;;;;4865489;29;20060;-93
2023/10/04 12:09:05;;;;;;;4.93;0.60;;;18.60;53.50;;;;;;4864925;29;20113;-94
2023/10/04 12:11:37;;;;;;;4.88;0.68;;;18.60;52.10;;;;;;4864873;29;20148;-93
2023/10/04 12:14:09;;;;;;;2.33;0.45;;;18.40;53.00;;;;;;4864749;29;20057;-92
2023/10/04 12:16:41;;;;;;;3.22;0.63;;;18.20;53.60;;;;;;4864885;29;20522;-94
2023/10/04 12:19:09;;;;;;;2.87;0.70;;;18.10;53.40;;;;;;4864934;29;20053;-93
2023/10/04 12:21:37;;;;;;;3.78;0.50;;;18.10;54.20;;;;;;4865075;29;20082;-93
2023/10/04 12:24:06;;;;;;;3.88;0.70;;;18.10;54.70;;;;;;4864825;29;20171;-93
2023/10/04 12:26:33;;;;;;;5.93;1.33;;;18.20;55.00;;;;;;4864895;29;20512;-93
2023/10/04 12:29:07;;;;;;;4.05;0.50;;;18.50;54.90;;;;;;4865090;29;20069;-93
2023/10/04 12:31:34;;;;;;;3.13;0.70;;;18.50;53.20;;;;;;4864761;29;20554;-93
2023/10/04 12:34:02;;;;;;;10.88;1.42;;;18.60;54.40;;;;;;4864860;29;20056;-93
2023/10/04 12:36:29;;;;;;;5.63;0.95;;;18.80;54.20;;;;;;4864541;29;20147;-93
2023/10/04 12:39:16;;;;;;;5.50;0.70;;;18.90;53.20;;;;;;4866509;29;20151;-93
2023/10/04 12:41:45;;;;;;;5.90;0.70;;;19.00;53.40;;;;;;4878960;29;20063;-93
2023/10/04 12:44:15;;;;;;;5.07;1.00;;;18.90;53.40;;;;;;4902270;29;20147;-94
2023/10/04 12:46:42;;;;;;;5.32;0.90;;;18.90;53.50;;;;;;4902419;29;20080;-93
2023/10/04 12:49:10;;;;;;;4.55;0.95;;;19.00;55.30;;;;;;4886956;29;20088;-93
2023/10/04 12:51:37;;;;;;;5.15;0.80;;;19.10;54.60;;;;;;4886946;29;20060;-94
2023/10/04 12:54:06;;;;;;;4.50;0.80;;;19.10;54.80;;;;;;4887068;29;20056;-92
2023/10/04 12:56:33;;;;;;;3.43;0.70;;;19.10;53.40;;;;;;4902330;29;20113;-93
2023/10/04 12:59:03;;;;;;;4.47;0.68;;;19.10;53.70;;;;;;4886676;29;20048;-94
2023/10/04 13:01:32;;;;;;;7.88;0.70;;;19.20;52.90;;;;;;4902334;29;20091;-94
2023/10/04 13:04:07;;;;;;;7.20;0.93;;;19.10;52.40;;;;;;4902122;29;20052;-93